Time;durP1;ratioP1;P1;durP2;ratioP2;P2;SDS_P1;SDS_P2;PMS_P1;PMS_P2;Temp;Humidity;BMP_temperature;BMP_pressure;BME280_temperature;BME280_humidity;BME280_pressure;Samples;Min_cycle;Max_cycle;Signal;HPM_P1;HPM_P2
2024/03/08 00:00:25;;;;;;;47.00;44.15;;;;;;;4.12;100.00;101530.25;5030422;28;20053;-72
2024/03/08 00:02:52;;;;;;;44.65;41.85;;;;;;;4.10;100.00;101531.38;5024681;28;20421;-72
2024/03/08 00:05:23;;;;;;;48.88;44.97;;;;;;;4.20;100.00;101529.53;5023014;28;20145;-72
2024/03/08 00:07:57;;;;;;;39.72;37.20;;;;;;;4.08;100.00;101534.13;5024087;28;20434;-72
2024/03/08 00:10:28;;;;;;;40.83;38.25;;;;;;;4.03;100.00;101528.50;5026059;28;20128;-72
2024/03/08 00:12:55;;;;;;;37.20;34.80;;;;;;;4.67;100.00;101526.81;5022153;28;20050;-72
2024/03/08 00:15:22;;;;;;;29.23;27.33;;;;;;;3.92;100.00;101526.03;5022064;28;20103;-72
2024/03/08 00:17:50;;;;;;;41.05;38.35;;;;;;;4.98;100.00;101519.41;5026834;28;20128;-72
2024/03/08 00:20:17;;;;;;;39.30;36.70;;;;;;;4.01;100.00;101519.91;5026184;28;20053;-72
2024/03/08 00:22:44;;;;;;;43.88;41.15;;;;;;;3.97;100.00;101515.09;5022861;28;20065;-72
2024/03/08 00:25:12;;;;;;;42.47;39.83;;;;;;;3.98;100.00;101508.84;5027604;28;20049;-72
2024/03/08 00:27:41;;;;;;;42.40;39.70;;;;;;;3.92;100.00;101507.63;5019739;28;20893;-73
2024/03/08 00:30:08;;;;;;;40.40;37.90;;;;;;;3.87;100.00;101513.31;5032281;28;20691;-72
2024/03/08 00:32:36;;;;;;;39.35;36.80;;;;;;;4.04;100.00;101514.38;5029404;28;20049;-73
2024/03/08 00:35:03;;;;;;;42.17;39.47;;;;;;;3.92;100.00;101509.44;5027311;28;20050;-72
2024/03/08 00:37:30;;;;;;;40.30;37.80;;;;;;;3.80;100.00;101509.59;5028574;28;20059;-72
2024/03/08 00:40:04;;;;;;;43.75;40.83;;;;;;;3.75;100.00;101516.25;5023722;28;20522;-72
2024/03/08 00:42:31;;;;;;;37.30;34.80;;;;;;;3.63;100.00;101510.31;5025143;28;20096;-69
2024/03/08 00:44:59;;;;;;;40.47;37.78;;;;;;;3.58;100.00;101520.44;5026401;28;20061;-69
2024/03/08 00:47:26;;;;;;;45.08;41.50;;;;;;;3.54;100.00;101519.91;5024447;28;20061;-69
2024/03/08 00:49:53;;;;;;;35.00;32.60;;;;;;;3.62;100.00;101522.63;5025100;28;20441;-69
2024/03/08 00:52:20;;;;;;;38.33;35.53;;;;;;;3.61;100.00;101520.16;5026512;28;20104;-69
2024/03/08 00:54:47;;;;;;;36.70;34.30;;;;;;;3.71;100.00;101525.38;5026528;28;20436;-69
2024/03/08 00:57:13;;;;;;;36.05;33.75;;;;;;;3.75;100.00;101518.88;5025154;28;20056;-69
2024/03/08 00:59:40;;;;;;;39.65;37.10;;;;;;;3.68;100.00;101515.97;5026132;28;20057;-69
2024/03/08 01:02:09;;;;;;;44.50;41.80;;;;;;;3.79;100.00;101520.25;5025903;28;20060;-69
2024/03/08 01:04:36;;;;;;;36.22;33.72;;;;;;;3.70;100.00;101524.56;5026508;28;20052;-72
2024/03/08 01:07:03;;;;;;;35.08;32.78;;;;;;;3.57;100.00;101522.25;5023715;28;20489;-70
2024/03/08 01:09:30;;;;;;;35.63;33.22;;;;;;;3.66;100.00;101517.91;5026881;28;20053;-69
2024/03/08 01:11:57;;;;;;;38.10;35.30;;;;;;;3.59;100.00;101522.91;5025930;28;20056;-72
2024/03/08 01:14:26;;;;;;;36.90;34.40;;;;;;;3.76;100.00;101512.66;5028175;28;20045;-72
2024/03/08 01:16:56;;;;;;;38.08;35.50;;;;;;;3.55;100.00;101511.03;5028317;28;20081;-72
2024/03/08 01:19:24;;;;;;;38.08;35.47;;;;;;;3.69;100.00;101507.13;5028005;28;20100;-72
2024/03/08 01:21:51;;;;;;;38.20;34.97;;;;;;;3.57;100.00;101514.34;5023608;28;20207;-72
2024/03/08 01:24:18;;;;;;;38.65;36.05;;;;;;;3.68;100.00;101511.56;5029970;28;20414;-69
2024/03/08 01:26:47;;;;;;;37.15;34.67;;;;;;;3.79;100.00;101510.56;5025943;28;20061;-69
2024/03/08 01:29:14;;;;;;;36.15;33.75;;;;;;;3.59;100.00;101517.66;5024392;28;20194;-72
2024/03/08 01:31:40;;;;;;;43.05;40.15;;;;;;;3.56;100.00;101517.94;5030327;28;20058;-72
2024/03/08 01:34:07;;;;;;;39.65;36.95;;;;;;;3.61;100.00;101520.16;5031486;28;20045;-72
2024/03/08 01:36:37;;;;;;;37.78;35.28;;;;;;;3.75;100.00;101516.25;5026279;28;20049;-72
2024/03/08 01:39:07;;;;;;;47.20;44.00;;;;;;;3.60;100.00;101519.31;5035612;28;20124;-73
2024/03/08 01:41:35;;;;;;;51.72;48.20;;;;;;;3.55;100.00;101520.72;5015573;28;20777;-72
2024/03/08 01:44:02;;;;;;;53.20;49.58;;;;;;;3.61;100.00;101525.41;5032056;28;20053;-72
2024/03/08 01:46:30;;;;;;;37.22;34.08;;;;;;;3.65;100.00;101522.34;5021988;28;20136;-70
2024/03/08 01:48:57;;;;;;;37.83;34.90;;;;;;;3.58;100.00;101529.13;5026589;28;20545;-73
2024/03/08 01:51:24;;;;;;;41.60;37.85;;;;;;;3.62;100.00;101533.13;5031230;28;20056;-69
2024/03/08 01:53:53;;;;;;;36.53;33.72;;;;;;;3.59;100.00;101528.16;5024454;28;20464;-69
2024/03/08 01:56:20;;;;;;;37.35;34.72;;;;;;;3.60;100.00;101528.97;5029451;28;20847;-69
2024/03/08 01:58:47;;;;;;;39.30;36.70;;;;;;;3.59;100.00;101529.97;5029334;28;20061;-69
2024/03/08 02:01:15;;;;;;;38.20;35.60;;;;;;;3.64;100.00;101525.13;5029316;28;20188;-69
2024/03/08 02:03:43;;;;;;;38.35;35.83;;;;;;;3.78;100.00;101534.34;5028622;28;20049;-69
2024/03/08 02:06:10;;;;;;;36.75;34.25;;;;;;;3.57;100.00;101531.88;5028176;28;20497;-69
2024/03/08 02:08:38;;;;;;;37.72;35.25;;;;;;;3.68;100.00;101532.56;5024432;28;20132;-69
2024/03/08 02:11:06;;;;;;;37.05;34.45;;;;;;;3.66;100.00;101531.06;5029364;28;20535;-69
2024/03/08 02:13:34;;;;;;;38.22;35.63;;;;;;;3.65;100.00;101537.28;5027904;28;20054;-69
2024/03/08 02:16:02;;;;;;;39.15;36.38;;;;;;;3.54;100.00;101532.16;5028202;28;20497;-69
2024/03/08 02:18:30;;;;;;;37.58;34.80;;;;;;;3.60;100.00;101535.09;5027946;28;20044;-69
2024/03/08 02:20:59;;;;;;;36.88;34.38;;;;;;;3.48;100.00;101535.34;5023286;28;20834;-68
2024/03/08 02:23:41;;;;;;;38.88;36.17;;;;;;;3.64;100.00;101525.94;5026330;28;20053;-72
2024/03/08 02:26:08;;;;;;;34.83;32.42;;;;;;;3.48;100.00;101533.59;5024153;28;20049;-74
2024/03/08 02:28:35;;;;;;;35.13;32.72;;;;;;;3.59;100.00;101533.41;5028705;28;20568;-74
2024/03/08 02:31:02;;;;;;;38.30;35.80;;;;;;;3.52;100.00;101531.50;5027252;28;20049;-74
2024/03/08 02:33:29;;;;;;;38.85;36.40;;;;;;;3.49;100.00;101529.16;5028026;28;20107;-74
2024/03/08 02:35:57;;;;;;;37.42;34.83;;;;;;;3.62;100.00;101529.69;5022545;28;20111;-71
2024/03/08 02:38:25;;;;;;;34.70;32.35;;;;;;;3.55;100.00;101531.22;5027308;28;20056;-71
2024/03/08 02:40:53;;;;;;;39.53;36.63;;;;;;;3.67;100.00;101533.56;5026958;28;20057;-71
2024/03/08 02:43:21;;;;;;;40.72;37.75;;;;;;;3.60;100.00;101540.34;5026309;28;20056;-70
2024/03/08 02:45:49;;;;;;;37.25;34.63;;;;;;;3.43;100.00;101535.78;5025261;28;20513;-71
2024/03/08 02:48:17;;;;;;;35.95;33.35;;;;;;;3.57;100.00;101534.53;5027780;28;20668;-71
2024/03/08 02:50:44;;;;;;;36.10;33.67;;;;;;;3.64;100.00;101528.56;5028388;28;20088;-71
2024/03/08 02:53:13;;;;;;;40.63;38.03;;;;;;;3.46;100.00;101532.88;5027759;28;20496;-70
2024/03/08 02:55:40;;;;;;;38.60;36.00;;;;;;;3.49;100.00;101535.22;5027827;28;20064;-71
2024/03/08 02:58:09;;;;;;;38.13;35.30;;;;;;;3.55;100.00;101547.81;5024867;28;20490;-71
2024/03/08 03:00:37;;;;;;;36.80;34.08;;;;;;;3.48;100.00;101543.25;5028470;28;20659;-70
2024/03/08 03:03:04;;;;;;;37.90;35.40;;;;;;;3.53;100.00;101547.09;5027644;28;20049;-71
2024/03/08 03:05:31;;;;;;;37.00;34.60;;;;;;;3.54;100.00;101543.53;5027654;28;20069;-70
2024/03/08 03:07:58;;;;;;;34.47;32.13;;;;;;;3.51;100.00;101535.94;5022715;28;20056;-71
2024/03/08 03:10:27;;;;;;;35.10;32.70;;;;;;;3.31;100.00;101534.28;5026753;28;20483;-71
2024/03/08 03:12:53;;;;;;;34.05;31.60;;;;;;;3.29;100.00;101536.19;5026354;28;20056;-70
2024/03/08 03:15:34;;;;;;;30.90;28.58;;;;;;;3.29;100.00;101536.19;5029856;28;20046;-74
2024/03/08 03:18:01;;;;;;;33.00;30.80;;;;;;;3.27;100.00;101532.88;5026027;28;20045;-74
2024/03/08 03:20:32;;;;;;;34.42;31.92;;;;;;;3.24;100.00;101536.63;5030765;28;20049;-74
2024/03/08 03:23:01;;;;;;;34.58;32.17;;;;;;;3.32;100.00;101534.13;5030521;28;20302;-74
2024/03/08 03:25:34;;;;;;;36.03;33.17;;;;;;;3.36;100.00;101527.66;5027457;28;20045;-74
2024/03/08 03:28:01;;;;;;;33.00;30.70;;;;;;;3.21;100.00;101537.72;5025418;28;20057;-74
2024/03/08 03:30:32;;;;;;;34.95;32.08;;;;;;;3.16;100.00;101541.72;5027935;28;20436;-70
2024/03/08 03:33:00;;;;;;;33.55;31.05;;;;;;;3.31;100.00;101539.53;5027645;28;20577;-71
2024/03/08 03:35:27;;;;;;;33.28;31.08;;;;;;;3.27;100.00;101535.50;5026481;28;20053;-70
2024/03/08 03:38:02;;;;;;;35.53;33.13;;;;;;;3.41;100.00;101535.91;5027790;28;20056;-71
2024/03/08 03:40:31;;;;;;;33.17;31.05;;;;;;;3.18;100.00;101534.56;5027041;28;20073;-72
2024/03/08 03:42:58;;;;;;;35.78;33.28;;;;;;;3.07;100.00;101537.31;5026134;28;20080;-71
2024/03/08 03:45:25;;;;;;;34.72;32.45;;;;;;;3.80;100.00;101548.19;5026946;28;20049;-71
2024/03/08 03:47:52;;;;;;;32.88;30.88;;;;;;;3.36;100.00;101543.41;5025951;28;20059;-70
2024/03/08 03:50:20;;;;;;;32.47;30.27;;;;;;;3.09;100.00;101541.47;5025054;28;20052;-70
2024/03/08 03:52:47;;;;;;;33.30;31.15;;;;;;;3.04;100.00;101537.56;5027796;28;20061;-71
2024/03/08 03:55:14;;;;;;;31.48;29.20;;;;;;;3.02;100.00;101547.38;5033107;28;20048;-74
2024/03/08 03:57:45;;;;;;;33.00;30.90;;;;;;;3.30;100.00;101548.34;5029746;28;20815;-74
2024/03/08 04:00:13;;;;;;;33.35;31.15;;;;;;;3.98;100.00;101557.00;5034886;28;20045;-74
2024/03/08 04:02:40;;;;;;;33.08;30.80;;;;;;;3.56;100.00;101554.72;5028440;28;20064;-74
2024/03/08 04:05:09;;;;;;;29.27;27.48;;;;;;;3.25;100.00;101564.53;5024813;28;20045;-74
2024/03/08 04:07:36;;;;;;;32.53;30.48;;;;;;;3.30;100.00;101550.97;5019566;28;20903;-74
2024/03/08 04:10:03;;;;;;;40.35;34.47;;;;;;;3.30;100.00;101561.47;5025041;28;20054;-74
2024/03/08 04:12:30;;;;;;;35.45;33.15;;;;;;;3.05;100.00;101561.03;5022424;28;20053;-74
2024/03/08 04:14:58;;;;;;;34.05;31.85;;;;;;;3.08;100.00;101563.41;5024440;28;20119;-73
2024/03/08 04:17:37;;;;;;;34.10;31.77;;;;;;;3.12;100.00;101553.47;5024643;28;20433;-74
2024/03/08 04:20:09;;;;;;;32.95;30.85;;;;;;;3.11;100.00;101549.19;5027112;28;20057;-70
2024/03/08 04:22:36;;;;;;;35.80;33.42;;;;;;;3.07;100.00;101547.81;5027327;28;20797;-71
2024/03/08 04:25:03;;;;;;;35.58;33.17;;;;;;;3.34;100.00;101555.00;5021843;28;20046;-69
2024/03/08 04:27:30;;;;;;;36.08;33.60;;;;;;;3.09;100.00;101559.81;5028560;28;20069;-71
2024/03/08 04:29:59;;;;;;;31.17;28.58;;;;;;;3.67;100.00;101559.00;5024727;28;20128;-71
2024/03/08 04:32:26;;;;;;;33.80;31.55;;;;;;;3.30;100.00;101558.84;5021257;28;20424;-70
2024/03/08 04:34:53;;;;;;;35.58;33.28;;;;;;;3.17;100.00;101556.50;5025755;28;20053;-70
2024/03/08 04:37:21;;;;;;;35.28;33.15;;;;;;;3.36;100.00;101558.31;5025254;28;20045;-69
2024/03/08 04:39:48;;;;;;;33.95;32.05;;;;;;;3.29;100.00;101551.97;5026627;28;20524;-69
2024/03/08 04:42:18;;;;;;;35.05;33.10;;;;;;;3.31;100.00;101552.66;5025388;28;20060;-71
2024/03/08 04:44:45;;;;;;;43.83;41.30;;;;;;;3.56;100.00;101557.34;5024260;28;20513;-71
2024/03/08 04:47:13;;;;;;;45.42;42.72;;;;;;;3.05;100.00;101558.41;5026683;28;20041;-70
2024/03/08 04:49:40;;;;;;;43.65;40.95;;;;;;;3.44;100.00;101551.41;5025915;28;20049;-71
2024/03/08 04:52:07;;;;;;;32.90;30.95;;;;;;;3.31;100.00;101550.84;5024422;28;20049;-73
2024/03/08 04:54:34;;;;;;;40.15;37.50;;;;;;;3.14;100.00;101554.16;5027740;28;20057;-74
2024/03/08 04:57:01;;;;;;;35.85;33.72;;;;;;;3.91;100.00;101569.06;5026803;28;20048;-70
2024/03/08 04:59:28;;;;;;;30.23;28.27;;;;;;;2.89;100.00;101564.19;5020596;28;20433;-71
2024/03/08 05:01:57;;;;;;;32.00;29.75;;;;;;;3.32;100.00;101567.44;5025900;28;20589;-71
2024/03/08 05:04:25;;;;;;;30.60;28.60;;;;;;;2.91;100.00;101572.78;5024631;28;20166;-70
2024/03/08 05:06:52;;;;;;;35.95;33.28;;;;;;;2.90;100.00;101576.34;5025161;28;20064;-70
2024/03/08 05:09:19;;;;;;;51.38;37.50;;;;;;;3.20;100.00;101579.84;5024685;28;20049;-74
2024/03/08 05:11:48;;;;;;;34.10;31.90;;;;;;;3.40;100.00;101583.34;5022659;28;20111;-70
2024/03/08 05:14:17;;;;;;;32.10;29.67;;;;;;;2.98;100.00;101591.44;5025448;28;20046;-70
2024/03/08 05:16:48;;;;;;;29.52;27.70;;;;;;;2.87;100.00;101588.91;5026123;28;20085;-71
2024/03/08 05:19:16;;;;;;;30.00;28.17;;;;;;;3.16;100.00;101589.81;5022072;28;20045;-70
2024/03/08 05:21:45;;;;;;;34.72;32.60;;;;;;;3.07;100.00;101589.81;5026803;28;20718;-74
2024/03/08 05:24:13;;;;;;;31.13;28.85;;;;;;;2.91;100.00;101596.41;5024527;28;20041;-73
2024/03/08 05:26:40;;;;;;;33.42;30.92;;;;;;;2.82;100.00;101599.00;5027498;28;20135;-74
2024/03/08 05:29:13;;;;;;;34.92;32.75;;;;;;;3.45;100.00;101599.53;5027736;28;20046;-74
2024/03/08 05:31:47;;;;;;;37.50;34.95;;;;;;;2.98;100.00;101604.56;5027996;28;20096;-74
2024/03/08 05:34:14;;;;;;;33.70;31.73;;;;;;;2.84;100.00;101602.31;5024273;28;20053;-74
2024/03/08 05:37:08;;;;;;;34.88;32.58;;;;;;;3.28;100.00;101611.53;5022573;28;20056;-74
2024/03/08 05:39:35;;;;;;;33.38;31.33;;;;;;;3.02;100.00;101616.44;5021143;28;20041;-74
2024/03/08 05:42:02;;;;;;;31.13;29.23;;;;;;;2.85;100.00;101623.19;5024681;28;20053;-74
2024/03/08 05:44:30;;;;;;;31.33;29.52;;;;;;;2.95;100.00;101621.41;5026967;28;20049;-71
2024/03/08 05:46:57;;;;;;;30.30;28.55;;;;;;;2.93;100.00;101628.56;5026903;28;20057;-74
2024/03/08 05:49:24;;;;;;;28.58;26.88;;;;;;;2.69;100.00;101625.44;5027868;28;20045;-74
2024/03/08 05:51:51;;;;;;;31.42;29.52;;;;;;;2.62;100.00;101630.41;5023021;28;20058;-74
2024/03/08 05:54:22;;;;;;;30.48;28.77;;;;;;;3.60;100.00;101631.44;5020223;28;20497;-72
2024/03/08 05:56:52;;;;;;;28.02;25.98;;;;;;;3.02;100.00;101637.44;5025285;28;20046;-72
2024/03/08 05:59:19;;;;;;;35.78;32.78;;;;;;;8.24;100.00;101639.75;5024396;28;20418;-71
2024/03/08 06:01:47;;;;;;;25.70;24.20;;;;;;;3.76;100.00;101642.25;5025602;28;20049;-70
2024/03/08 06:04:14;;;;;;;29.60;27.67;;;;;;;3.02;100.00;101649.75;5024950;28;20111;-70
2024/03/08 06:06:41;;;;;;;27.92;26.30;;;;;;;2.97;100.00;101644.91;5024849;28;20050;-71
2024/03/08 06:09:11;;;;;;;29.52;27.73;;;;;;;3.03;100.00;101648.78;5017046;28;20057;-71
2024/03/08 06:11:39;;;;;;;28.65;26.95;;;;;;;2.93;100.00;101653.97;5023122;28;20049;-71
2024/03/08 06:14:06;;;;;;;28.73;27.13;;;;;;;2.79;100.00;101649.13;5026184;28;20081;-70
2024/03/08 06:16:33;;;;;;;29.38;27.48;;;;;;;3.19;100.00;101654.34;5027762;28;20421;-71
2024/03/08 06:19:02;;;;;;;29.02;27.23;;;;;;;2.79;100.00;101651.75;5028111;28;20054;-70
2024/03/08 06:21:29;;;;;;;27.17;25.58;;;;;;;2.74;100.00;101660.00;5029616;28;20402;-70
2024/03/08 06:24:01;;;;;;;27.17;25.55;;;;;;;2.68;100.00;101660.53;5028250;28;20049;-70
2024/03/08 06:26:29;;;;;;;30.80;28.70;;;;;;;2.71;100.00;101663.72;5027720;28;20049;-70
2024/03/08 06:28:58;;;;;;;30.98;28.92;;;;;;;2.77;100.00;101664.16;5028090;28;20041;-71
2024/03/08 06:31:25;;;;;;;29.80;27.65;;;;;;;2.86;100.00;101666.81;5027466;28;20148;-70
2024/03/08 06:33:54;;;;;;;28.30;26.45;;;;;;;2.93;100.00;101667.94;5026296;28;20511;-71
2024/03/08 06:36:21;;;;;;;30.10;27.92;;;;;;;2.90;100.00;101667.38;5028814;28;20053;-71
2024/03/08 06:38:48;;;;;;;31.42;29.52;;;;;;;2.88;100.00;101666.69;5028104;28;20072;-71
2024/03/08 06:41:16;;;;;;;33.83;31.08;;;;;;;2.85;100.00;101674.84;5027899;28;20061;-71
2024/03/08 06:43:43;;;;;;;27.42;25.73;;;;;;;2.93;100.00;101667.09;5027457;28;20807;-71
2024/03/08 06:46:12;;;;;;;29.02;27.30;;;;;;;3.01;100.00;101672.53;5027356;28;20073;-71
2024/03/08 06:48:39;;;;;;;28.30;26.40;;;;;;;2.95;100.00;101673.06;5028252;28;20049;-71
2024/03/08 06:51:06;;;;;;;28.80;27.02;;;;;;;3.02;100.00;101678.59;5030016;28;20041;-72
2024/03/08 06:53:34;;;;;;;28.13;26.42;;;;;;;3.10;100.00;101676.97;5030159;28;20057;-72
2024/03/08 06:56:01;;;;;;;29.10;27.27;;;;;;;3.08;100.00;101678.91;5028098;28;20076;-73
2024/03/08 06:58:34;;;;;;;29.30;27.27;;;;;;;3.13;100.00;101683.75;5028809;28;20049;-72
2024/03/08 07:01:03;;;;;;;31.48;29.20;;;;;;;3.15;100.00;101687.09;5027242;28;20041;-71
2024/03/08 07:03:32;;;;;;;31.95;30.05;;;;;;;3.26;100.00;101686.97;5032342;28;20064;-71
2024/03/08 07:05:59;;;;;;;27.88;26.17;;;;;;;3.13;100.00;101687.22;5024331;28;20139;-71
2024/03/08 07:08:26;;;;;;;29.60;27.42;;;;;;;3.13;100.00;101681.97;5023248;28;20076;-72
2024/03/08 07:10:57;;;;;;;29.95;28.00;;;;;;;3.27;100.00;101679.91;5031224;28;20072;-72
2024/03/08 07:13:24;;;;;;;28.10;26.50;;;;;;;3.15;100.00;101687.09;5029969;28;20818;-73
2024/03/08 07:16:00;;;;;;;29.75;27.85;;;;;;;3.24;100.00;101693.31;5031752;28;20049;-72
2024/03/08 07:18:29;;;;;;;31.38;29.48;;;;;;;3.30;100.00;101683.13;5026444;28;20061;-73
2024/03/08 07:20:57;;;;;;;35.25;32.33;;;;;;;3.12;100.00;101692.63;5026386;28;20068;-72
2024/03/08 07:24:02;;;;;;;34.95;32.85;;;;;;;3.25;100.00;101684.50;5031066;28;20057;-72
2024/03/08 07:26:30;;;;;;;33.90;31.80;;;;;;;3.33;100.00;101677.59;5027073;28;20128;-70
2024/03/08 07:28:58;;;;;;;35.80;33.65;;;;;;;3.43;100.00;101691.56;5027715;28;20521;-71
2024/03/08 07:31:34;;;;;;;32.65;30.65;;;;;;;3.52;100.00;101684.69;5027347;28;20141;-71
2024/03/08 07:34:03;;;;;;;33.50;31.55;;;;;;;3.55;100.00;101692.28;5027482;28;20056;-70
2024/03/08 07:36:31;;;;;;;34.67;32.63;;;;;;;3.52;100.00;101689.13;5028509;28;20460;-70
2024/03/08 07:38:58;;;;;;;34.42;32.53;;;;;;;3.44;100.00;101684.53;5029316;28;20053;-70
2024/03/08 07:41:25;;;;;;;33.50;31.67;;;;;;;3.51;100.00;101695.31;5027907;28;20055;-70
2024/03/08 07:43:52;;;;;;;34.47;32.40;;;;;;;3.42;100.00;101687.28;5028571;28;20054;-72
2024/03/08 07:46:19;;;;;;;34.85;32.85;;;;;;;3.62;100.00;101690.78;5030046;28;20412;-72
2024/03/08 07:48:46;;;;;;;34.08;32.08;;;;;;;3.39;100.00;101699.88;5032218;28;20099;-72
2024/03/08 07:51:13;;;;;;;33.70;31.70;;;;;;;3.57;100.00;101690.38;5034311;28;20099;-72
2024/03/08 07:53:41;;;;;;;36.67;34.28;;;;;;;3.64;100.00;101694.09;5029243;28;20063;-72
2024/03/08 07:56:11;;;;;;;36.60;34.15;;;;;;;3.84;100.00;101694.97;5026506;28;20133;-72
2024/03/08 07:58:38;;;;;;;34.03;32.03;;;;;;;5.63;100.00;101700.19;5025490;28;20068;-70
2024/03/08 08:01:05;;;;;;;32.90;30.95;;;;;;;4.00;100.00;101699.66;5027094;28;20046;-70
2024/03/08 08:03:32;;;;;;;35.65;33.42;;;;;;;3.95;100.00;101701.03;5027911;28;20053;-70
2024/03/08 08:05:59;;;;;;;35.05;32.85;;;;;;;3.90;100.00;101704.06;5028219;28;20048;-69
2024/03/08 08:08:26;;;;;;;34.28;32.28;;;;;;;3.86;100.00;101710.56;5017984;28;20068;-70
2024/03/08 08:10:54;;;;;;;34.75;32.53;;;;;;;3.87;100.00;101704.34;5028780;28;20524;-70
2024/03/08 08:13:22;;;;;;;35.42;33.22;;;;;;;3.81;100.00;101704.88;5027858;28;20751;-70
2024/03/08 08:15:49;;;;;;;36.20;33.90;;;;;;;3.88;100.00;101703.38;5025932;28;20493;-70
2024/03/08 08:18:17;;;;;;;35.95;33.70;;;;;;;3.77;100.00;101708.78;5027150;28;20060;-70
2024/03/08 08:20:44;;;;;;;40.00;35.95;;;;;;;4.07;100.00;101719.16;5031341;28;20908;-70
2024/03/08 08:23:12;;;;;;;36.53;34.13;;;;;;;3.86;100.00;101706.13;5026506;28;20057;-71
2024/03/08 08:25:38;;;;;;;33.78;31.77;;;;;;;3.97;100.00;101714.88;5027323;28;20061;-71
2024/03/08 08:28:07;;;;;;;35.00;32.90;;;;;;;3.90;100.00;101712.81;5027106;28;20049;-70
2024/03/08 08:30:34;;;;;;;34.85;32.45;;;;;;;4.06;100.00;101709.63;5023667;28;20432;-70
2024/03/08 08:33:01;;;;;;;37.50;35.30;;;;;;;3.99;100.00;101711.13;5024975;28;20049;-70
2024/03/08 08:35:28;;;;;;;39.33;35.30;;;;;;;4.16;100.00;101712.22;5027994;28;20081;-71
2024/03/08 08:37:55;;;;;;;36.20;33.63;;;;;;;3.98;100.00;101722.59;5024878;28;20531;-70
2024/03/08 08:40:22;;;;;;;35.30;33.28;;;;;;;3.88;100.00;101714.72;5026026;28;20072;-70
2024/03/08 08:42:49;;;;;;;37.45;35.13;;;;;;;3.90;100.00;101718.06;5026364;28;20054;-69
2024/03/08 08:45:18;;;;;;;38.50;36.20;;;;;;;3.95;100.00;101720.25;5028085;28;20073;-70
2024/03/08 08:47:44;;;;;;;38.55;36.13;;;;;;;4.12;100.00;101719.56;5023958;28;20057;-71
2024/03/08 08:50:12;;;;;;;37.88;35.42;;;;;;;4.19;100.00;101724.28;5025859;28;20049;-70
2024/03/08 08:52:39;;;;;;;41.75;39.03;;;;;;;4.08;100.00;101725.22;5025902;28;20053;-70
2024/03/08 08:55:07;;;;;;;43.17;39.25;;;;;;;3.87;100.00;101723.59;5027276;28;20041;-70
2024/03/08 08:57:35;;;;;;;43.00;40.30;;;;;;;4.02;100.00;101720.53;5027536;28;20140;-70
2024/03/08 09:00:06;;;;;;;45.53;42.63;;;;;;;4.13;100.00;101721.22;5020923;28;20049;-70
2024/03/08 09:02:35;;;;;;;44.90;41.95;;;;;;;4.56;100.00;101721.72;5027936;28;20068;-70
2024/03/08 09:05:02;;;;;;;41.03;38.63;;;;;;;4.29;100.00;101719.81;5025693;28;20155;-70
2024/03/08 09:07:29;;;;;;;49.78;46.60;;;;;;;7.44;100.00;101716.22;5025384;28;20053;-70
2024/03/08 09:09:58;;;;;;;36.63;34.42;;;;;;;4.51;100.00;101716.06;5021734;28;20049;-70
2024/03/08 09:12:24;;;;;;;34.35;32.35;;;;;;;4.25;100.00;101715.81;5018873;28;20056;-71
2024/03/08 09:14:51;;;;;;;36.78;34.67;;;;;;;4.19;100.00;101719.00;5025987;28;20055;-71
2024/03/08 09:17:20;;;;;;;35.40;32.88;;;;;;;4.34;100.00;101721.06;5027229;28;20068;-71
2024/03/08 09:19:48;;;;;;;34.30;32.10;;;;;;;4.46;100.00;101724.38;5025537;28;20103;-71
2024/03/08 09:22:15;;;;;;;35.10;33.00;;;;;;;4.74;100.00;101722.63;5025273;28;20076;-70
2024/03/08 09:24:43;;;;;;;35.90;33.70;;;;;;;4.89;100.00;101723.00;5025955;28;20049;-70
2024/03/08 09:27:10;;;;;;;40.47;37.75;;;;;;;4.56;100.00;101719.91;5021970;28;20058;-71
2024/03/08 09:29:37;;;;;;;39.63;37.22;;;;;;;4.40;100.00;101721.47;5027941;28;20108;-72
2024/03/08 09:32:17;;;;;;;42.17;39.40;;;;;;;4.56;100.00;101724.34;5023955;28;20037;-72
2024/03/08 09:34:44;;;;;;;37.92;35.63;;;;;;;4.62;100.00;101723.78;5026754;28;20056;-72
2024/03/08 09:37:12;;;;;;;43.30;40.80;;;;;;;4.67;100.00;101726.81;5027795;28;20049;-72
2024/03/08 09:39:39;;;;;;;45.17;42.45;;;;;;;4.69;100.00;101732.78;5022119;28;20060;-71
2024/03/08 09:42:07;;;;;;;40.92;38.70;;;;;;;4.53;100.00;101724.63;5023758;28;20722;-71
2024/03/08 09:44:35;;;;;;;39.65;37.33;;;;;;;4.52;100.00;101728.25;5026317;28;20560;-70
2024/03/08 09:47:02;;;;;;;42.63;40.25;;;;;;;4.49;100.00;101728.53;5026925;28;20041;-70
2024/03/08 09:49:30;;;;;;;38.97;36.63;;;;;;;4.39;100.00;101725.06;5028028;28;20045;-71
2024/03/08 09:51:56;;;;;;;38.40;36.10;;;;;;;4.53;100.00;101730.72;5027448;28;20493;-71
2024/03/08 09:54:26;;;;;;;40.10;37.10;;;;;;;4.42;100.00;101728.28;5029556;28;20060;-70
2024/03/08 09:56:53;;;;;;;40.42;37.92;;;;;;;4.64;100.00;101731.56;5029703;28;20054;-70
2024/03/08 10:02:12;;;;;;;41.30;38.80;;;;;;;4.50;100.00;101725.75;5031430;28;20057;-72
2024/03/08 10:04:42;;;;;;;36.92;34.60;;;;;;;4.61;100.00;101730.03;5029851;28;20053;-72
2024/03/08 10:07:09;;;;;;;39.22;36.47;;;;;;;4.73;100.00;101728.88;5026587;28;20476;-72
2024/03/08 10:09:37;;;;;;;37.33;34.83;;;;;;;4.73;100.00;101728.06;5023456;28;20053;-72
2024/03/08 10:12:06;;;;;;;36.95;34.17;;;;;;;4.58;100.00;101725.88;5030099;28;20045;-72
2024/03/08 10:14:33;;;;;;;32.33;30.27;;;;;;;4.80;100.00;101724.69;5032130;28;20102;-72
2024/03/08 10:17:00;;;;;;;33.50;31.25;;;;;;;4.99;100.00;101725.59;5033494;28;20045;-72
2024/03/08 10:19:27;;;;;;;32.40;30.38;;;;;;;4.86;100.00;101736.47;5018965;28;20042;-72
2024/03/08 10:21:56;;;;;;;38.20;35.70;;;;;;;4.95;100.00;101730.34;5022563;28;20049;-70
2024/03/08 10:24:24;;;;;;;33.70;31.48;;;;;;;4.76;100.00;101733.88;5033010;28;20044;-72
2024/03/08 10:26:54;;;;;;;33.08;31.02;;;;;;;4.88;100.00;101736.34;5031127;28;20129;-72
2024/03/08 10:29:21;;;;;;;37.75;34.97;;;;;;;4.88;100.00;101726.63;5023617;28;20445;-70
2024/03/08 10:31:50;;;;;;;37.55;34.90;;;;;;;4.88;100.00;101737.16;5030898;28;20515;-71
2024/03/08 10:34:16;;;;;;;37.22;34.72;;;;;;;4.89;100.00;101732.72;5029655;28;20145;-71
2024/03/08 10:36:44;;;;;;;39.28;36.88;;;;;;;4.88;100.00;101731.06;5030791;28;20128;-70
2024/03/08 10:39:21;;;;;;;34.30;32.08;;;;;;;4.83;100.00;101724.41;5029729;28;20049;-72
2024/03/08 10:41:59;;;;;;;32.92;30.80;;;;;;;4.87;100.00;101732.88;5029225;28;20042;-70
2024/03/08 10:44:44;;;;;;;32.60;30.70;;;;;;;4.87;100.00;101729.38;5027688;28;20588;-70
2024/03/08 10:47:19;;;;;;;35.60;33.42;;;;;;;4.89;100.00;101724.81;5023429;28;20056;-71
2024/03/08 10:50:02;;;;;;;34.30;32.13;;;;;;;4.82;100.00;101724.56;5024521;28;20060;-72
2024/03/08 10:52:31;;;;;;;35.95;33.53;;;;;;;4.83;100.00;101726.22;5030290;28;20058;-72
2024/03/08 10:55:00;;;;;;;37.28;34.95;;;;;;;4.97;100.00;101717.03;5027621;28;20045;-70
2024/03/08 10:57:29;;;;;;;38.63;36.22;;;;;;;5.07;100.00;101715.19;5027019;28;20060;-70
2024/03/08 10:59:57;;;;;;;38.42;36.13;;;;;;;4.95;100.00;101711.91;5026722;28;20075;-70
2024/03/08 11:02:28;;;;;;;37.08;35.08;;;;;;;4.95;100.00;101716.34;5029272;28;20063;-70
2024/03/08 11:04:56;;;;;;;40.45;38.25;;;;;;;4.91;100.00;101707.91;5025135;28;20143;-70
2024/03/08 11:07:23;;;;;;;44.38;41.83;;;;;;;4.92;100.00;101709.56;5027963;28;20363;-71
2024/03/08 11:09:50;;;;;;;42.72;40.03;;;;;;;5.12;100.00;101706.88;5023608;28;20478;-72
2024/03/08 11:12:22;;;;;;;40.75;38.45;;;;;;;5.17;100.00;101710.69;5028622;28;20046;-70
2024/03/08 11:14:50;;;;;;;45.53;43.03;;;;;;;5.20;100.00;101710.41;5028480;28;20111;-71
2024/03/08 11:17:22;;;;;;;37.95;35.55;;;;;;;5.14;100.00;101705.72;5029641;28;20566;-72